sensor_id;sensor_type;location;lat;lon;timestamp;temperature;humidity
71304;DHT22;59091;47.446;19.148;2023-06-22T00:01:49;23.62;74.63
71304;DHT22;59091;47.446;19.148;2023-06-22T00:04:15;23.41;75.61
71304;DHT22;59091;47.446;19.148;2023-06-22T00:06:40;23.57;75.15
71304;DHT22;59091;47.446;19.148;2023-06-22T00:09:06;23.78;74.44
71304;DHT22;59091;47.446;19.148;2023-06-22T00:11:33;23.90;74.54
71304;DHT22;59091;47.446;19.148;2023-06-22T00:14:02;23.94;74.89
71304;DHT22;59091;47.446;19.148;2023-06-22T00:16:27;24.01;74.40
71304;DHT22;59091;47.446;19.148;2023-06-22T00:18:53;24.05;74.15
71304;DHT22;59091;47.446;19.148;2023-06-22T00:21:18;24.01;75.17
71304;DHT22;59091;47.446;19.148;2023-06-22T00:23:46;24.03;75.03
71304;DHT22;59091;47.446;19.148;2023-06-22T00:26:12;24.14;73.91
71304;DHT22;59091;47.446;19.148;2023-06-22T00:28:38;24.18;73.86
71304;DHT22;59091;47.446;19.148;2023-06-22T00:31:03;24.26;73.89
71304;DHT22;59091;47.446;19.148;2023-06-22T00:33:29;24.29;73.82
71304;DHT22;59091;47.446;19.148;2023-06-22T00:35:54;24.35;73.67
71304;DHT22;59091;47.446;19.148;2023-06-22T00:38:20;24.35;73.46
71304;DHT22;59091;47.446;19.148;2023-06-22T00:40:46;24.32;73.45
71304;DHT22;59091;47.446;19.148;2023-06-22T00:43:11;24.34;73.59
71304;DHT22;59091;47.446;19.148;2023-06-22T00:45:37;24.31;73.74
71304;DHT22;59091;47.446;19.148;2023-06-22T00:48:03;24.31;73.76
71304;DHT22;59091;47.446;19.148;2023-06-22T00:50:31;24.36;73.62
71304;DHT22;59091;47.446;19.148;2023-06-22T00:53:03;24.39;73.79
71304;DHT22;59091;47.446;19.148;2023-06-22T00:55:35;24.35;73.89
71304;DHT22;59091;47.446;19.148;2023-06-22T00:58:03;24.34;73.87
71304;DHT22;59091;47.446;19.148;2023-06-22T01:00:33;24.38;73.81
71304;DHT22;59091;47.446;19.148;2023-06-22T01:02:58;24.36;73.82
71304;DHT22;59091;47.446;19.148;2023-06-22T01:05:24;24.38;73.72
71304;DHT22;59091;47.446;19.148;2023-06-22T01:13:22;24.35;73.88
71304;DHT22;59091;47.446;19.148;2023-06-22T01:16:00;24.26;74.04
71304;DHT22;59091;47.446;19.148;2023-06-22T01:18:29;24.28;74.16
71304;DHT22;59091;47.446;19.148;2023-06-22T01:20:56;24.29;74.25
71304;DHT22;59091;47.446;19.148;2023-06-22T01:23:29;24.26;74.34
71304;DHT22;59091;47.446;19.148;2023-06-22T01:26:08;24.28;74.43
71304;DHT22;59091;47.446;19.148;2023-06-22T01:28:45;24.28;74.56
71304;DHT22;59091;47.446;19.148;2023-06-22T01:31:14;24.31;74.40
71304;DHT22;59091;47.446;19.148;2023-06-22T01:33:43;24.34;74.47
71304;DHT22;59091;47.446;19.148;2023-06-22T01:36:10;24.38;74.44
71304;DHT22;59091;47.446;19.148;2023-06-22T01:38:37;24.36;74.63
71304;DHT22;59091;47.446;19.148;2023-06-22T01:41:03;24.36;74.63
71304;DHT22;59091;47.446;19.148;2023-06-22T01:43:29;24.25;74.73
71304;DHT22;59091;47.446;19.148;2023-06-22T01:45:56;24.20;74.63
71304;DHT22;59091;47.446;19.148;2023-06-22T01:48:23;24.18;74.49
71304;DHT22;59091;47.446;19.148;2023-06-22T01:50:49;24.22;74.33
71304;DHT22;59091;47.446;19.148;2023-06-22T01:53:14;24.15;74.55
71304;DHT22;59091;47.446;19.148;2023-06-22T01:55:40;24.11;74.90
71304;DHT22;59091;47.446;19.148;2023-06-22T01:58:05;24.10;74.74
71304;DHT22;59091;47.446;19.148;2023-06-22T02:00:37;24.11;74.47
71304;DHT22;59091;47.446;19.148;2023-06-22T02:03:08;24.13;74.61
71304;DHT22;59091;47.446;19.148;2023-06-22T02:05:39;24.15;74.83
71304;DHT22;59091;47.446;19.148;2023-06-22T02:08:10;24.11;74.96
71304;DHT22;59091;47.446;19.148;2023-06-22T02:10:38;24.10;74.93
71304;DHT22;59091;47.446;19.148;2023-06-22T02:13:07;24.08;74.98
71304;DHT22;59091;47.446;19.148;2023-06-22T02:15:34;24.08;75.09
71304;DHT22;59091;47.446;19.148;2023-06-22T02:18:00;24.08;75.15
71304;DHT22;59091;47.446;19.148;2023-06-22T02:20:25;24.08;75.52
71304;DHT22;59091;47.446;19.148;2023-06-22T02:22:51;24.04;75.57
71304;DHT22;59091;47.446;19.148;2023-06-22T02:25:16;24.07;75.17
71304;DHT22;59091;47.446;19.148;2023-06-22T02:27:42;24.11;75.05
71304;DHT22;59091;47.446;19.148;2023-06-22T02:30:08;24.11;75.45
71304;DHT22;59091;47.446;19.148;2023-06-22T02:32:35;24.13;75.39
71304;DHT22;59091;47.446;19.148;2023-06-22T02:35:00;24.15;74.98
71304;DHT22;59091;47.446;19.148;2023-06-22T02:37:29;24.21;74.74
71304;DHT22;59091;47.446;19.148;2023-06-22T02:39:54;24.18;75.25
71304;DHT22;59091;47.446;19.148;2023-06-22T02:42:20;24.08;76.18
71304;DHT22;59091;47.446;19.148;2023-06-22T02:44:47;24.10;75.68
71304;DHT22;59091;47.446;19.148;2023-06-22T02:47:12;24.14;75.22
71304;DHT22;59091;47.446;19.148;2023-06-22T02:49:38;24.14;75.10
71304;DHT22;59091;47.446;19.148;2023-06-22T02:52:04;24.18;75.07
71304;DHT22;59091;47.446;19.148;2023-06-22T02:54:29;24.25;75.02
71304;DHT22;59091;47.446;19.148;2023-06-22T02:56:55;24.28;75.08
71304;DHT22;59091;47.446;19.148;2023-06-22T02:59:20;24.29;75.01
71304;DHT22;59091;47.446;19.148;2023-06-22T03:01:49;24.29;75.08
71304;DHT22;59091;47.446;19.148;2023-06-22T03:04:15;24.25;75.12
71304;DHT22;59091;47.446;19.148;2023-06-22T03:06:41;24.26;75.22
71304;DHT22;59091;47.446;19.148;2023-06-22T03:09:06;24.11;76.11
71304;DHT22;59091;47.446;19.148;2023-06-22T03:11:33;24.01;76.37
71304;DHT22;59091;47.446;19.148;2023-06-22T03:13:59;24.04;76.13
71304;DHT22;59091;47.446;19.148;2023-06-22T03:16:25;24.04;76.06
71304;DHT22;59091;47.446;19.148;2023-06-22T03:18:51;24.10;76.03
71304;DHT22;59091;47.446;19.148;2023-06-22T03:21:16;24.11;76.16
71304;DHT22;59091;47.446;19.148;2023-06-22T03:23:42;24.13;75.70
71304;DHT22;59091;47.446;19.148;2023-06-22T03:26:09;24.21;75.37
71304;DHT22;59091;47.446;19.148;2023-06-22T03:28:35;24.26;75.35
71304;DHT22;59091;47.446;19.148;2023-06-22T03:31:00;24.32;75.30
71304;DHT22;59091;47.446;19.148;2023-06-22T03:33:26;24.35;75.20
71304;DHT22;59091;47.446;19.148;2023-06-22T03:35:51;24.35;75.25
71304;DHT22;59091;47.446;19.148;2023-06-22T03:38:17;24.44;75.24
71304;DHT22;59091;47.446;19.148;2023-06-22T03:40:42;24.47;74.97
71304;DHT22;59091;47.446;19.148;2023-06-22T03:43:08;24.54;74.79
71304;DHT22;59091;47.446;19.148;2023-06-22T03:45:33;24.59;74.70
71304;DHT22;59091;47.446;19.148;2023-06-22T03:48:01;24.66;74.53
71304;DHT22;59091;47.446;19.148;2023-06-22T03:50:27;24.72;74.20
71304;DHT22;59091;47.446;19.148;2023-06-22T03:52:52;24.77;74.00
71304;DHT22;59091;47.446;19.148;2023-06-22T03:55:19;24.85;73.70
71304;DHT22;59091;47.446;19.148;2023-06-22T03:57:45;24.89;73.59
71304;DHT22;59091;47.446;19.148;2023-06-22T04:00:11;24.95;73.46
71304;DHT22;59091;47.446;19.148;2023-06-22T04:02:37;24.99;73.34
71304;DHT22;59091;47.446;19.148;2023-06-22T04:05:02;25.00;73.07
71304;DHT22;59091;47.446;19.148;2023-06-22T04:07:28;25.07;73.12
71304;DHT22;59091;47.446;19.148;2023-06-22T04:09:53;25.13;72.68
71304;DHT22;59091;47.446;19.148;2023-06-22T04:12:18;25.20;72.31
71304;DHT22;59091;47.446;19.148;2023-06-22T04:14:44;25.24;72.17
71304;DHT22;59091;47.446;19.148;2023-06-22T04:17:09;25.34;72.01
71304;DHT22;59091;47.446;19.148;2023-06-22T04:19:35;25.33;72.53
71304;DHT22;59091;47.446;19.148;2023-06-22T04:22:00;25.37;72.56
71304;DHT22;59091;47.446;19.148;2023-06-22T04:24:26;25.33;72.92
71304;DHT22;59091;47.446;19.148;2023-06-22T04:26:51;25.31;73.01
71304;DHT22;59091;47.446;19.148;2023-06-22T04:29:20;25.33;72.69
71304;DHT22;59091;47.446;19.148;2023-06-22T04:31:45;25.09;71.74
71304;DHT22;59091;47.446;19.148;2023-06-22T04:34:16;25.43;70.20
71304;DHT22;59091;47.446;19.148;2023-06-22T04:36:42;25.53;69.62
71304;DHT22;59091;47.446;19.148;2023-06-22T04:39:11;25.64;69.36
71304;DHT22;59091;47.446;19.148;2023-06-22T04:41:40;25.74;69.09
71304;DHT22;59091;47.446;19.148;2023-06-22T04:44:09;25.85;68.90
71304;DHT22;59091;47.446;19.148;2023-06-22T04:46:35;26.19;68.56
71304;DHT22;59091;47.446;19.148;2023-06-22T04:49:07;26.36;68.78
71304;DHT22;59091;47.446;19.148;2023-06-22T04:51:39;26.35;68.47
71304;DHT22;59091;47.446;19.148;2023-06-22T04:54:06;26.47;67.89
71304;DHT22;59091;47.446;19.148;2023-06-22T04:56:32;26.53;67.61
71304;DHT22;59091;47.446;19.148;2023-06-22T04:58:58;26.63;67.02
71304;DHT22;59091;47.446;19.148;2023-06-22T05:01:23;26.66;67.19
71304;DHT22;59091;47.446;19.148;2023-06-22T05:03:50;26.69;66.70
71304;DHT22;59091;47.446;19.148;2023-06-22T05:06:16;26.86;66.34
71304;DHT22;59091;47.446;19.148;2023-06-22T05:08:43;27.04;66.26
71304;DHT22;59091;47.446;19.148;2023-06-22T05:11:08;27.27;65.65
71304;DHT22;59091;47.446;19.148;2023-06-22T05:13:34;27.25;65.67
71304;DHT22;59091;47.446;19.148;2023-06-22T05:15:59;27.34;65.15
71304;DHT22;59091;47.446;19.148;2023-06-22T05:18:29;27.41;64.72
71304;DHT22;59091;47.446;19.148;2023-06-22T05:20:55;27.54;64.14
71304;DHT22;59091;47.446;19.148;2023-06-22T05:23:20;27.56;63.91
71304;DHT22;59091;47.446;19.148;2023-06-22T05:25:46;27.48;64.08
71304;DHT22;59091;47.446;19.148;2023-06-22T05:28:11;27.58;64.01
71304;DHT22;59091;47.446;19.148;2023-06-22T05:30:37;27.59;64.58
71304;DHT22;59091;47.446;19.148;2023-06-22T05:33:03;27.62;64.47
71304;DHT22;59091;47.446;19.148;2023-06-22T05:35:29;27.69;64.43
71304;DHT22;59091;47.446;19.148;2023-06-22T05:37:55;27.76;64.36
71304;DHT22;59091;47.446;19.148;2023-06-22T05:40:20;27.86;64.10
71304;DHT22;59091;47.446;19.148;2023-06-22T05:42:46;27.96;64.09
71304;DHT22;59091;47.446;19.148;2023-06-22T05:45:12;28.00;63.33
71304;DHT22;59091;47.446;19.148;2023-06-22T05:47:37;28.21;62.59
71304;DHT22;59091;47.446;19.148;2023-06-22T05:50:03;28.35;61.96
71304;DHT22;59091;47.446;19.148;2023-06-22T05:52:32;28.50;62.08
71304;DHT22;59091;47.446;19.148;2023-06-22T05:54:57;28.50;60.93
71304;DHT22;59091;47.446;19.148;2023-06-22T05:57:23;28.54;61.23
71304;DHT22;59091;47.446;19.148;2023-06-22T05:59:48;28.64;60.84
71304;DHT22;59091;47.446;19.148;2023-06-22T06:02:14;28.79;59.94
71304;DHT22;59091;47.446;19.148;2023-06-22T06:04:39;28.98;59.34
71304;DHT22;59091;47.446;19.148;2023-06-22T06:07:05;28.95;57.56
71304;DHT22;59091;47.446;19.148;2023-06-22T06:09:30;29.09;57.18
71304;DHT22;59091;47.446;19.148;2023-06-22T06:11:56;29.04;55.07
71304;DHT22;59091;47.446;19.148;2023-06-22T06:14:21;29.16;55.44
71304;DHT22;59091;47.446;19.148;2023-06-22T06:16:48;29.46;56.00
71304;DHT22;59091;47.446;19.148;2023-06-22T06:19:14;29.72;55.47
71304;DHT22;59091;47.446;19.148;2023-06-22T06:21:39;29.96;54.37
71304;DHT22;59091;47.446;19.148;2023-06-22T06:24:05;30.07;53.67
71304;DHT22;59091;47.446;19.148;2023-06-22T06:26:31;30.32;53.76
71304;DHT22;59091;47.446;19.148;2023-06-22T06:28:59;30.28;51.12
71304;DHT22;59091;47.446;19.148;2023-06-22T06:31:25;30.41;51.07
71304;DHT22;59091;47.446;19.148;2023-06-22T06:33:54;30.48;49.53
71304;DHT22;59091;47.446;19.148;2023-06-22T06:36:20;30.44;49.90
71304;DHT22;59091;47.446;19.148;2023-06-22T06:38:45;30.81;50.34
71304;DHT22;59091;47.446;19.148;2023-06-22T06:41:13;30.98;48.69
71304;DHT22;59091;47.446;19.148;2023-06-22T06:43:39;30.99;46.85
71304;DHT22;59091;47.446;19.148;2023-06-22T06:46:04;30.98;45.21
71304;DHT22;59091;47.446;19.148;2023-06-22T06:48:29;31.25;45.58
71304;DHT22;59091;47.446;19.148;2023-06-22T06:50:55;31.44;45.46
71304;DHT22;59091;47.446;19.148;2023-06-22T06:53:20;31.85;45.32
71304;DHT22;59091;47.446;19.148;2023-06-22T06:55:46;32.11;44.26
71304;DHT22;59091;47.446;19.148;2023-06-22T06:58:11;32.35;44.13
71304;DHT22;59091;47.446;19.148;2023-06-22T07:00:39;32.41;44.51
71304;DHT22;59091;47.446;19.148;2023-06-22T07:03:04;32.46;42.83
71304;DHT22;59091;47.446;19.148;2023-06-22T07:05:30;32.72;42.49
71304;DHT22;59091;47.446;19.148;2023-06-22T07:07:55;32.86;42.29
71304;DHT22;59091;47.446;19.148;2023-06-22T07:10:21;32.84;42.03
71304;DHT22;59091;47.446;19.148;2023-06-22T07:12:46;32.86;42.77
71304;DHT22;59091;47.446;19.148;2023-06-22T07:15:13;32.89;45.15
71304;DHT22;59091;47.446;19.148;2023-06-22T07:17:39;33.24;42.92
71304;DHT22;59091;47.446;19.148;2023-06-22T07:20:06;33.41;42.63
71304;DHT22;59091;47.446;19.148;2023-06-22T07:22:42;33.71;40.58
71304;DHT22;59091;47.446;19.148;2023-06-22T07:25:10;33.64;41.30
71304;DHT22;59091;47.446;19.148;2023-06-22T07:27:39;33.75;41.55
71304;DHT22;59091;47.446;19.148;2023-06-22T07:30:08;34.00;41.24
71304;DHT22;59091;47.446;19.148;2023-06-22T07:32:34;34.32;40.66
71304;DHT22;59091;47.446;19.148;2023-06-22T07:35:00;34.53;41.22
71304;DHT22;59091;47.446;19.148;2023-06-22T07:37:30;34.62;38.99
71304;DHT22;59091;47.446;19.148;2023-06-22T07:39:56;34.82;36.91
71304;DHT22;59091;47.446;19.148;2023-06-22T07:42:27;35.18;38.26
71304;DHT22;59091;47.446;19.148;2023-06-22T07:44:54;34.89;39.15
71304;DHT22;59091;47.446;19.148;2023-06-22T07:47:20;35.34;37.00
71304;DHT22;59091;47.446;19.148;2023-06-22T07:49:50;35.48;35.98
71304;DHT22;59091;47.446;19.148;2023-06-22T07:52:15;35.64;36.93
71304;DHT22;59091;47.446;19.148;2023-06-22T07:54:41;35.92;35.65
71304;DHT22;59091;47.446;19.148;2023-06-22T07:57:06;35.82;34.41
71304;DHT22;59091;47.446;19.148;2023-06-22T07:59:32;36.09;35.74
71304;DHT22;59091;47.446;19.148;2023-06-22T08:01:57;36.06;36.05
71304;DHT22;59091;47.446;19.148;2023-06-22T08:04:23;36.12;37.43
71304;DHT22;59091;47.446;19.148;2023-06-22T08:06:48;36.19;37.24
71304;DHT22;59091;47.446;19.148;2023-06-22T08:09:14;36.29;37.19
71304;DHT22;59091;47.446;19.148;2023-06-22T08:11:40;36.22;37.42
71304;DHT22;59091;47.446;19.148;2023-06-22T08:14:05;36.43;36.46
71304;DHT22;59091;47.446;19.148;2023-06-22T08:16:30;36.81;36.18
71304;DHT22;59091;47.446;19.148;2023-06-22T08:18:56;36.77;35.72
71304;DHT22;59091;47.446;19.148;2023-06-22T08:21:21;36.66;36.93
71304;DHT22;59091;47.446;19.148;2023-06-22T08:23:48;36.71;36.04
71304;DHT22;59091;47.446;19.148;2023-06-22T08:26:14;36.36;36.17
71304;DHT22;59091;47.446;19.148;2023-06-22T08:28:39;36.20;37.58
71304;DHT22;59091;47.446;19.148;2023-06-22T08:31:05;36.18;37.39
71304;DHT22;59091;47.446;19.148;2023-06-22T08:33:30;36.63;35.89
71304;DHT22;59091;47.446;19.148;2023-06-22T08:35:57;36.64;35.32
71304;DHT22;59091;47.446;19.148;2023-06-22T08:38:23;37.13;35.53
71304;DHT22;59091;47.446;19.148;2023-06-22T08:40:48;36.86;35.63
71304;DHT22;59091;47.446;19.148;2023-06-22T08:43:14;36.54;35.38
71304;DHT22;59091;47.446;19.148;2023-06-22T08:45:39;36.84;35.54
71304;DHT22;59091;47.446;19.148;2023-06-22T08:48:05;36.84;35.53
71304;DHT22;59091;47.446;19.148;2023-06-22T08:50:30;36.70;36.23
71304;DHT22;59091;47.446;19.148;2023-06-22T08:52:56;36.88;35.70
71304;DHT22;59091;47.446;19.148;2023-06-22T08:55:21;37.34;35.51
71304;DHT22;59091;47.446;19.148;2023-06-22T08:57:47;37.34;35.63
71304;DHT22;59091;47.446;19.148;2023-06-22T09:00:13;37.35;36.60
71304;DHT22;59091;47.446;19.148;2023-06-22T09:02:43;37.46;34.84
71304;DHT22;59091;47.446;19.148;2023-06-22T09:05:09;37.66;34.89
71304;DHT22;59091;47.446;19.148;2023-06-22T09:07:34;37.32;36.31
71304;DHT22;59091;47.446;19.148;2023-06-22T09:10:00;37.28;36.80
71304;DHT22;59091;47.446;19.148;2023-06-22T09:12:25;37.35;35.53
71304;DHT22;59091;47.446;19.148;2023-06-22T09:14:53;37.06;34.45
71304;DHT22;59091;47.446;19.148;2023-06-22T09:17:18;36.97;36.08
71304;DHT22;59091;47.446;19.148;2023-06-22T09:19:44;37.11;35.22
71304;DHT22;59091;47.446;19.148;2023-06-22T09:22:10;37.15;36.96
71304;DHT22;59091;47.446;19.148;2023-06-22T09:24:35;37.18;36.35
71304;DHT22;59091;47.446;19.148;2023-06-22T09:27:01;37.22;35.73
71304;DHT22;59091;47.446;19.148;2023-06-22T09:29:26;36.87;35.74
71304;DHT22;59091;47.446;19.148;2023-06-22T09:31:51;36.84;36.99
71304;DHT22;59091;47.446;19.148;2023-06-22T09:34:19;36.70;36.70
71304;DHT22;59091;47.446;19.148;2023-06-22T09:36:47;37.00;36.43
71304;DHT22;59091;47.446;19.148;2023-06-22T09:39:13;37.04;37.22
71304;DHT22;59091;47.446;19.148;2023-06-22T09:41:38;37.07;36.63
71304;DHT22;59091;47.446;19.148;2023-06-22T09:44:04;36.69;36.15
71304;DHT22;59091;47.446;19.148;2023-06-22T09:46:30;36.64;36.33
71304;DHT22;59091;47.446;19.148;2023-06-22T09:48:55;35.98;36.88
71304;DHT22;59091;47.446;19.148;2023-06-22T09:51:21;35.92;39.51
71304;DHT22;59091;47.446;19.148;2023-06-22T09:53:48;35.75;37.87
71304;DHT22;59091;47.446;19.148;2023-06-22T09:56:14;35.47;41.38
71304;DHT22;59091;47.446;19.148;2023-06-22T09:58:44;35.70;39.32
71304;DHT22;59091;47.446;19.148;2023-06-22T10:01:10;35.45;40.23
71304;DHT22;59091;47.446;19.148;2023-06-22T10:03:36;35.55;39.89
71304;DHT22;59091;47.446;19.148;2023-06-22T10:06:02;35.58;40.51
71304;DHT22;59091;47.446;19.148;2023-06-22T10:08:27;35.80;41.09
71304;DHT22;59091;47.446;19.148;2023-06-22T10:10:53;35.65;39.42
71304;DHT22;59091;47.446;19.148;2023-06-22T10:13:18;35.06;42.14
71304;DHT22;59091;47.446;19.148;2023-06-22T10:15:44;34.97;39.53
71304;DHT22;59091;47.446;19.148;2023-06-22T10:18:15;35.14;41.73
71304;DHT22;59091;47.446;19.148;2023-06-22T10:20:41;35.10;39.40
71304;DHT22;59091;47.446;19.148;2023-06-22T10:23:16;35.30;39.05
71304;DHT22;59091;47.446;19.148;2023-06-22T10:25:47;35.61;38.76
71304;DHT22;59091;47.446;19.148;2023-06-22T10:28:12;35.80;39.07
71304;DHT22;59091;47.446;19.148;2023-06-22T10:30:39;35.74;39.68
71304;DHT22;59091;47.446;19.148;2023-06-22T10:33:07;35.42;39.49
71304;DHT22;59091;47.446;19.148;2023-06-22T10:35:32;35.24;39.46
71304;DHT22;59091;47.446;19.148;2023-06-22T10:37:58;35.21;41.77
71304;DHT22;59091;47.446;19.148;2023-06-22T10:40:23;35.08;41.20
71304;DHT22;59091;47.446;19.148;2023-06-22T10:42:49;35.24;41.41
71304;DHT22;59091;47.446;19.148;2023-06-22T10:45:15;35.13;40.66
71304;DHT22;59091;47.446;19.148;2023-06-22T10:47:42;34.84;40.07
71304;DHT22;59091;47.446;19.148;2023-06-22T10:50:08;34.73;39.70
71304;DHT22;59091;47.446;19.148;2023-06-22T10:52:33;34.36;41.09
71304;DHT22;59091;47.446;19.148;2023-06-22T10:54:59;34.45;41.63
71304;DHT22;59091;47.446;19.148;2023-06-22T10:57:24;34.84;40.63
71304;DHT22;59091;47.446;19.148;2023-06-22T10:59:50;35.14;40.93
71304;DHT22;59091;47.446;19.148;2023-06-22T11:02:15;35.07;39.05
71304;DHT22;59091;47.446;19.148;2023-06-22T11:04:40;35.13;38.83
71304;DHT22;59091;47.446;19.148;2023-06-22T11:07:06;34.76;40.67
71304;DHT22;59091;47.446;19.148;2023-06-22T11:09:31;34.64;42.13
71304;DHT22;59091;47.446;19.148;2023-06-22T11:11:57;34.63;39.60
71304;DHT22;59091;47.446;19.148;2023-06-22T11:14:24;34.62;39.55
71304;DHT22;59091;47.446;19.148;2023-06-22T11:16:49;34.70;40.66
71304;DHT22;59091;47.446;19.148;2023-06-22T11:19:15;34.93;40.66
71304;DHT22;59091;47.446;19.148;2023-06-22T11:21:40;35.14;40.73
71304;DHT22;59091;47.446;19.148;2023-06-22T11:24:06;35.34;39.45
71304;DHT22;59091;47.446;19.148;2023-06-22T11:26:31;35.33;41.82
71304;DHT22;59091;47.446;19.148;2023-06-22T11:28:58;35.31;40.86
71304;DHT22;59091;47.446;19.148;2023-06-22T11:31:24;35.03;39.61
71304;DHT22;59091;47.446;19.148;2023-06-22T11:33:49;35.29;39.06
71304;DHT22;59091;47.446;19.148;2023-06-22T11:36:15;35.58;39.11
71304;DHT22;59091;47.446;19.148;2023-06-22T11:38:41;35.48;37.82
71304;DHT22;59091;47.446;19.148;2023-06-22T11:41:07;35.66;37.75
71304;DHT22;59091;47.446;19.148;2023-06-22T11:43:32;35.44;38.95
71304;DHT22;59091;47.446;19.148;2023-06-22T11:45:58;35.24;39.80
71304;DHT22;59091;47.446;19.148;2023-06-22T11:48:24;35.03;40.40
71304;DHT22;59091;47.446;19.148;2023-06-22T11:50:50;35.06;39.09
71304;DHT22;59091;47.446;19.148;2023-06-22T11:53:15;35.29;38.98
71304;DHT22;59091;47.446;19.148;2023-06-22T11:55:43;35.55;38.54
71304;DHT22;59091;47.446;19.148;2023-06-22T11:58:08;35.91;38.94
71304;DHT22;59091;47.446;19.148;2023-06-22T12:00:33;35.84;37.46
71304;DHT22;59091;47.446;19.148;2023-06-22T12:02:59;35.84;37.67
71304;DHT22;59091;47.446;19.148;2023-06-22T12:05:24;35.92;36.74
71304;DHT22;59091;47.446;19.148;2023-06-22T12:07:53;36.13;35.95
71304;DHT22;59091;47.446;19.148;2023-06-22T12:10:18;36.20;36.00
71304;DHT22;59091;47.446;19.148;2023-06-22T12:12:44;36.23;36.77
71304;DHT22;59091;47.446;19.148;2023-06-22T12:15:10;36.42;37.22
71304;DHT22;59091;47.446;19.148;2023-06-22T12:17:36;36.66;37.61
71304;DHT22;59091;47.446;19.148;2023-06-22T12:20:01;36.30;37.89
71304;DHT22;59091;47.446;19.148;2023-06-22T12:22:31;36.29;36.65
71304;DHT22;59091;47.446;19.148;2023-06-22T12:24:56;35.98;36.79
71304;DHT22;59091;47.446;19.148;2023-06-22T12:27:22;35.89;36.54
71304;DHT22;59091;47.446;19.148;2023-06-22T12:29:47;35.80;37.59
71304;DHT22;59091;47.446;19.148;2023-06-22T12:32:13;35.99;36.90
71304;DHT22;59091;47.446;19.148;2023-06-22T12:34:41;36.15;37.66
71304;DHT22;59091;47.446;19.148;2023-06-22T12:37:06;36.29;38.26
71304;DHT22;59091;47.446;19.148;2023-06-22T12:39:32;36.59;38.39
71304;DHT22;59091;47.446;19.148;2023-06-22T12:41:58;36.66;37.00
71304;DHT22;59091;47.446;19.148;2023-06-22T12:44:23;36.50;36.25
71304;DHT22;59091;47.446;19.148;2023-06-22T12:46:49;36.50;36.30
71304;DHT22;59091;47.446;19.148;2023-06-22T12:49:14;36.32;37.08
71304;DHT22;59091;47.446;19.148;2023-06-22T12:51:41;36.63;37.79
71304;DHT22;59091;47.446;19.148;2023-06-22T12:54:10;36.76;36.62
71304;DHT22;59091;47.446;19.148;2023-06-22T12:56:37;36.87;37.10
71304;DHT22;59091;47.446;19.148;2023-06-22T12:59:03;37.07;37.81
71304;DHT22;59091;47.446;19.148;2023-06-22T13:01:29;36.97;37.91
71304;DHT22;59091;47.446;19.148;2023-06-22T13:03:56;37.21;36.81
71304;DHT22;59091;47.446;19.148;2023-06-22T13:06:22;37.10;37.00
71304;DHT22;59091;47.446;19.148;2023-06-22T13:08:47;37.34;36.10
71304;DHT22;59091;47.446;19.148;2023-06-22T13:11:13;37.38;35.02
71304;DHT22;59091;47.446;19.148;2023-06-22T13:13:39;36.90;35.71
71304;DHT22;59091;47.446;19.148;2023-06-22T13:16:04;36.88;35.68
71304;DHT22;59091;47.446;19.148;2023-06-22T13:18:29;37.06;36.19
71304;DHT22;59091;47.446;19.148;2023-06-22T13:20:55;37.14;35.28
71304;DHT22;59091;47.446;19.148;2023-06-22T13:23:21;37.25;34.41
71304;DHT22;59091;47.446;19.148;2023-06-22T13:25:47;37.28;34.18
71304;DHT22;59091;47.446;19.148;2023-06-22T13:28:13;37.10;35.11
71304;DHT22;59091;47.446;19.148;2023-06-22T13:30:41;36.88;35.00
71304;DHT22;59091;47.446;19.148;2023-06-22T13:33:07;37.04;34.27
71304;DHT22;59091;47.446;19.148;2023-06-22T13:35:33;37.07;33.84
71304;DHT22;59091;47.446;19.148;2023-06-22T13:38:00;37.20;33.93
71304;DHT22;59091;47.446;19.148;2023-06-22T13:40:26;37.01;35.66
71304;DHT22;59091;47.446;19.148;2023-06-22T13:42:51;36.91;36.02
71304;DHT22;59091;47.446;19.148;2023-06-22T13:45:17;37.06;35.53
71304;DHT22;59091;47.446;19.148;2023-06-22T13:47:44;37.15;36.38
71304;DHT22;59091;47.446;19.148;2023-06-22T13:50:09;37.43;35.86
71304;DHT22;59091;47.446;19.148;2023-06-22T13:52:35;37.48;34.24
71304;DHT22;59091;47.446;19.148;2023-06-22T13:55:02;37.37;35.36
71304;DHT22;59091;47.446;19.148;2023-06-22T13:57:27;36.80;33.70
71304;DHT22;59091;47.446;19.148;2023-06-22T13:59:53;36.86;34.40
71304;DHT22;59091;47.446;19.148;2023-06-22T14:02:18;36.86;34.05
71304;DHT22;59091;47.446;19.148;2023-06-22T14:04:44;37.10;33.89
71304;DHT22;59091;47.446;19.148;2023-06-22T14:07:09;37.28;33.93
71304;DHT22;59091;47.446;19.148;2023-06-22T14:09:36;37.46;34.65
71304;DHT22;59091;47.446;19.148;2023-06-22T14:12:05;37.38;36.29
71304;DHT22;59091;47.446;19.148;2023-06-22T14:14:32;37.18;35.46
71304;DHT22;59091;47.446;19.148;2023-06-22T14:16:58;37.06;36.35
71304;DHT22;59091;47.446;19.148;2023-06-22T14:19:24;37.17;35.65
71304;DHT22;59091;47.446;19.148;2023-06-22T14:21:49;37.27;34.94
71304;DHT22;59091;47.446;19.148;2023-06-22T14:24:14;37.39;35.69
71304;DHT22;59091;47.446;19.148;2023-06-22T14:26:40;37.58;35.60
71304;DHT22;59091;47.446;19.148;2023-06-22T14:29:05;37.75;35.13
71304;DHT22;59091;47.446;19.148;2023-06-22T14:31:31;37.89;34.36
71304;DHT22;59091;47.446;19.148;2023-06-22T14:33:56;37.86;34.44
71304;DHT22;59091;47.446;19.148;2023-06-22T14:36:22;37.72;34.52
71304;DHT22;59091;47.446;19.148;2023-06-22T14:38:47;37.81;34.21
71304;DHT22;59091;47.446;19.148;2023-06-22T14:41:12;37.79;34.59
71304;DHT22;59091;47.446;19.148;2023-06-22T14:43:44;37.57;33.55
71304;DHT22;59091;47.446;19.148;2023-06-22T14:46:10;37.75;33.72
71304;DHT22;59091;47.446;19.148;2023-06-22T14:48:35;37.88;33.79
71304;DHT22;59091;47.446;19.148;2023-06-22T14:51:01;38.08;33.86
71304;DHT22;59091;47.446;19.148;2023-06-22T14:53:26;38.22;34.39
71304;DHT22;59091;47.446;19.148;2023-06-22T14:55:51;38.08;34.68
71304;DHT22;59091;47.446;19.148;2023-06-22T14:58:19;38.15;34.97
71304;DHT22;59091;47.446;19.148;2023-06-22T15:00:44;37.98;34.71
71304;DHT22;59091;47.446;19.148;2023-06-22T15:03:09;37.88;34.35
71304;DHT22;59091;47.446;19.148;2023-06-22T15:05:42;37.88;34.17
71304;DHT22;59091;47.446;19.148;2023-06-22T15:08:07;37.93;34.08
71304;DHT22;59091;47.446;19.148;2023-06-22T15:10:33;37.93;33.28
71304;DHT22;59091;47.446;19.148;2023-06-22T15:12:58;37.94;33.03
71304;DHT22;59091;47.446;19.148;2023-06-22T15:15:23;37.92;33.53